createdAt,value
2018-07-17T00:00:12.074Z,21.69
2018-07-17T00:01:12.074Z,21.72
2018-07-17T00:02:12.071Z,21.77
2018-07-17T00:03:12.075Z,21.77
2018-07-17T00:04:12.073Z,21.77
2018-07-17T00:05:12.097Z,21.77
2018-07-17T00:06:12.072Z,21.70
2018-07-17T00:07:12.068Z,21.73
2018-07-17T00:08:12.069Z,21.62
2018-07-17T00:09:12.072Z,21.60
2018-07-17T00:10:12.070Z,21.55
2018-07-17T00:11:12.088Z,21.50
2018-07-17T00:12:12.066Z,21.50
2018-07-17T00:13:12.067Z,21.50
2018-07-17T00:14:12.064Z,21.52
2018-07-17T00:15:12.062Z,21.51
2018-07-17T00:16:12.083Z,21.52
2018-07-17T00:17:12.066Z,21.46
2018-07-17T00:18:12.075Z,21.50
2018-07-17T00:19:12.072Z,21.51
2018-07-17T00:20:12.057Z,21.52
2018-07-17T00:21:12.070Z,21.40
2018-07-17T00:22:12.063Z,21.48
2018-07-17T00:23:12.071Z,21.36
2018-07-17T00:24:12.061Z,21.40
2018-07-17T00:25:12.057Z,21.36
2018-07-17T00:26:12.055Z,21.37
2018-07-17T00:27:12.060Z,21.30
2018-07-17T00:28:12.053Z,21.33
2018-07-17T00:29:12.057Z,21.30
2018-07-17T00:30:12.053Z,21.33
2018-07-17T00:31:12.057Z,21.30
2018-07-17T00:32:12.054Z,21.35
2018-07-17T00:33:12.050Z,21.30
2018-07-17T00:34:12.054Z,21.25
2018-07-17T00:35:12.066Z,21.20
2018-07-17T00:36:12.047Z,21.21
2018-07-17T00:37:12.055Z,21.06
2018-07-17T00:38:12.044Z,21.12
2018-07-17T00:39:12.062Z,21.03
2018-07-17T00:40:12.046Z,21.09
2018-07-17T00:41:12.043Z,21.15
2018-07-17T00:42:12.049Z,21.07
2018-07-17T00:43:12.041Z,21.06
2018-07-17T00:44:12.045Z,21.12
2018-07-17T00:45:12.045Z,20.99
2018-07-17T00:46:12.040Z,21.06
2018-07-17T00:47:12.065Z,20.92
2018-07-17T00:48:12.057Z,20.97
2018-07-17T00:49:12.038Z,20.96
2018-07-17T00:50:12.036Z,20.95
2018-07-17T00:51:12.040Z,20.93
2018-07-17T00:52:12.034Z,20.92
2018-07-17T00:53:12.046Z,20.96
2018-07-17T00:54:12.031Z,20.92
2018-07-17T00:55:12.030Z,21.00
2018-07-17T00:56:12.066Z,20.96
2018-07-17T00:57:12.030Z,20.92
2018-07-17T00:58:12.026Z,20.92
2018-07-17T00:59:12.034Z,20.93
2018-07-17T01:00:12.046Z,20.93
2018-07-17T01:01:12.092Z,20.85
2018-07-17T01:02:12.023Z,20.84
2018-07-17T01:03:12.023Z,20.85
2018-07-17T01:04:12.022Z,20.81
2018-07-17T01:05:12.028Z,20.82
2018-07-17T01:06:12.022Z,20.81
2018-07-17T01:07:12.021Z,20.82
2018-07-17T01:08:12.025Z,20.81
2018-07-17T01:09:12.022Z,20.85
2018-07-17T01:10:12.017Z,20.84
2018-07-17T01:11:12.014Z,20.82
2018-07-17T01:12:12.014Z,20.84
2018-07-17T01:13:12.018Z,20.80
2018-07-17T01:14:12.012Z,20.82
2018-07-17T01:15:12.016Z,20.77
2018-07-17T01:16:12.010Z,20.72
2018-07-17T01:17:12.011Z,20.72
2018-07-17T01:18:12.008Z,20.72
2018-07-17T01:19:12.008Z,20.69
2018-07-17T01:20:12.009Z,20.67
2018-07-17T01:21:12.013Z,20.66
2018-07-17T01:22:12.004Z,20.66
2018-07-17T01:23:12.004Z,20.67
2018-07-17T01:24:12.009Z,20.63
2018-07-17T01:25:12.004Z,20.63
2018-07-17T01:26:12.002Z,20.63
2018-07-17T01:27:12.003Z,20.62
2018-07-17T01:28:11.999Z,20.65
2018-07-17T01:29:11.996Z,20.65
2018-07-17T01:30:11.998Z,20.60
2018-07-17T01:31:11.996Z,20.66
2018-07-17T01:32:12.004Z,20.63
2018-07-17T01:33:11.996Z,20.62
2018-07-17T01:34:11.991Z,20.62
2018-07-17T01:35:11.993Z,20.55
2018-07-17T01:36:12.025Z,20.58
2018-07-17T01:37:12.011Z,20.52
2018-07-17T01:38:11.988Z,20.52
2018-07-17T01:39:11.987Z,20.44
2018-07-17T01:40:11.984Z,20.41
2018-07-17T01:41:11.982Z,20.47
2018-07-17T01:42:11.982Z,20.47
2018-07-17T01:43:11.984Z,20.34
2018-07-17T01:44:11.984Z,20.29
2018-07-17T01:45:11.989Z,20.39
2018-07-17T01:46:11.982Z,20.34
2018-07-17T01:47:11.975Z,20.29
2018-07-17T01:48:11.974Z,20.28
2018-07-17T01:49:11.974Z,20.26
2018-07-17T01:50:11.996Z,20.28
2018-07-17T01:51:11.994Z,20.29
2018-07-17T01:52:11.988Z,20.36
2018-07-17T01:53:11.973Z,20.28
2018-07-17T01:54:11.970Z,20.32
2018-07-17T01:55:11.974Z,20.25
2018-07-17T01:56:11.971Z,20.28
2018-07-17T01:57:11.992Z,20.22
2018-07-17T01:58:11.966Z,20.29
2018-07-17T01:59:11.962Z,20.29
2018-07-17T02:00:11.959Z,20.22
2018-07-17T02:01:11.958Z,20.14
2018-07-17T02:02:11.961Z,20.16
2018-07-17T02:03:11.958Z,20.14
2018-07-17T02:04:11.960Z,20.18
2018-07-17T02:05:11.979Z,20.07
2018-07-17T02:06:11.993Z,20.14
2018-07-17T02:07:11.953Z,20.09
2018-07-17T02:08:11.952Z,20.06
2018-07-17T02:09:11.950Z,20.06
2018-07-17T02:10:11.946Z,20.06
2018-07-17T02:11:11.943Z,20.04
2018-07-17T02:12:11.949Z,20.07
2018-07-17T02:13:11.957Z,20.02
2018-07-17T02:14:11.942Z,20.03
2018-07-17T02:15:11.940Z,19.94
2018-07-17T02:16:11.946Z,20.07
2018-07-17T02:17:11.938Z,19.96
2018-07-17T02:18:11.939Z,19.84
2018-07-17T02:19:11.937Z,19.84
2018-07-17T02:20:11.935Z,19.81
2018-07-17T02:21:11.935Z,19.71
2018-07-17T02:22:11.971Z,19.76
2018-07-17T02:23:11.929Z,19.70
2018-07-17T02:24:12.659Z,19.66
2018-07-17T02:25:11.931Z,19.79
2018-07-17T02:26:11.926Z,19.71
2018-07-17T02:27:11.930Z,19.82
2018-07-17T02:28:11.925Z,19.74
2018-07-17T02:29:11.924Z,19.73
2018-07-17T02:30:11.928Z,19.85
2018-07-17T02:31:11.917Z,19.76
2018-07-17T02:32:11.921Z,19.76
2018-07-17T02:33:11.917Z,19.77
2018-07-17T02:34:11.923Z,19.74
2018-07-17T02:35:11.918Z,19.79
2018-07-17T02:36:11.911Z,19.81
2018-07-17T02:37:11.913Z,19.82
2018-07-17T02:38:11.909Z,19.73
2018-07-17T02:39:11.908Z,19.85
2018-07-17T02:40:11.918Z,19.79
2018-07-17T02:41:11.910Z,19.76
2018-07-17T02:42:11.930Z,19.69
2018-07-17T02:43:11.908Z,19.73
2018-07-17T02:44:11.899Z,19.73
2018-07-17T02:45:11.897Z,19.77
2018-07-17T02:46:11.895Z,19.73
2018-07-17T02:47:11.904Z,19.74
2018-07-17T02:48:11.897Z,19.70
2018-07-17T02:49:11.901Z,19.69
2018-07-17T02:50:11.894Z,19.70
2018-07-17T02:51:11.888Z,19.66
2018-07-17T02:52:11.889Z,19.62
2018-07-17T02:53:11.890Z,19.62
2018-07-17T02:54:11.888Z,19.67
2018-07-17T02:55:11.947Z,19.67
2018-07-17T02:56:11.890Z,19.71
2018-07-17T02:57:11.892Z,19.73
2018-07-17T02:58:11.878Z,19.67
2018-07-17T02:59:11.897Z,19.73
2018-07-17T03:00:11.883Z,19.77
2018-07-17T03:01:11.889Z,19.77
2018-07-17T03:02:11.881Z,19.73
2018-07-17T03:03:11.909Z,19.67
2018-07-17T03:04:11.874Z,19.76
2018-07-17T03:05:11.871Z,19.62
2018-07-17T03:06:11.868Z,19.64
2018-07-17T03:07:11.963Z,19.69
2018-07-17T03:08:11.872Z,19.66
2018-07-17T03:09:11.878Z,19.66
2018-07-17T03:10:11.859Z,19.55
2018-07-17T03:11:11.859Z,19.59
2018-07-17T03:12:11.864Z,19.52
2018-07-17T03:13:11.896Z,19.54
2018-07-17T03:14:11.861Z,19.54
2018-07-17T03:15:11.856Z,19.48
2018-07-17T03:16:11.852Z,19.49
2018-07-17T03:17:11.905Z,19.54
2018-07-17T03:18:11.853Z,19.54
2018-07-17T03:19:11.848Z,19.51
2018-07-17T03:20:11.842Z,19.54
2018-07-17T03:21:11.851Z,19.52
2018-07-17T03:22:11.840Z,19.49
2018-07-17T03:23:11.839Z,19.45
2018-07-17T03:24:11.843Z,19.37
2018-07-17T03:25:11.839Z,19.44
2018-07-17T03:26:11.833Z,19.47
2018-07-17T03:27:11.835Z,19.41
2018-07-17T03:28:11.831Z,19.40
2018-07-17T03:29:11.825Z,19.34
2018-07-17T03:30:11.830Z,19.36
2018-07-17T03:31:11.829Z,19.34
2018-07-17T03:32:11.826Z,19.22
2018-07-17T03:33:11.833Z,19.18
2018-07-17T03:34:11.822Z,19.21
2018-07-17T03:35:11.816Z,19.18
2018-07-17T03:36:11.816Z,19.15
2018-07-17T03:37:11.819Z,19.16
2018-07-17T03:38:11.822Z,19.08
2018-07-17T03:39:11.821Z,19.11
2018-07-17T03:40:11.821Z,19.12
2018-07-17T03:41:11.815Z,19.07
2018-07-17T03:42:11.805Z,19.08
2018-07-17T03:43:11.809Z,19.02
2018-07-17T03:44:11.806Z,19.00
2018-07-17T03:45:11.803Z,19.09
2018-07-17T03:46:11.803Z,19.00
2018-07-17T03:47:11.804Z,18.95
2018-07-17T03:48:11.802Z,19.02
2018-07-17T03:49:12.708Z,19.09
2018-07-17T03:50:11.792Z,19.00
2018-07-17T03:51:11.797Z,19.09
2018-07-17T03:52:11.791Z,19.02
2018-07-17T03:53:11.795Z,19.09
2018-07-17T03:54:11.789Z,19.04
2018-07-17T03:55:11.787Z,19.08
2018-07-17T03:56:11.798Z,19.00
2018-07-17T03:57:11.798Z,19.09
2018-07-17T03:58:11.777Z,18.99
2018-07-17T03:59:11.780Z,18.93
2018-07-17T04:00:11.794Z,18.90
2018-07-17T04:01:11.773Z,18.89
2018-07-17T04:02:11.790Z,18.89
2018-07-17T04:03:11.771Z,18.90
2018-07-17T04:04:11.775Z,18.89
2018-07-17T04:05:11.767Z,18.92
2018-07-17T04:06:11.775Z,18.95
2018-07-17T04:07:11.767Z,18.90
2018-07-17T04:08:11.766Z,18.90
2018-07-17T04:09:11.761Z,18.92
2018-07-17T04:10:11.755Z,18.89
2018-07-17T04:11:12.717Z,19.02
2018-07-17T04:12:11.756Z,18.95
2018-07-17T04:13:11.756Z,18.92
2018-07-17T04:14:11.752Z,18.96
2018-07-17T04:15:11.749Z,18.95
2018-07-17T04:16:11.750Z,18.93
2018-07-17T04:17:11.748Z,19.04
2018-07-17T04:18:11.742Z,18.95
2018-07-17T04:19:11.743Z,19.02
2018-07-17T04:20:11.743Z,19.04
2018-07-17T04:21:11.743Z,19.02
2018-07-17T04:22:11.737Z,19.04
2018-07-17T04:23:11.736Z,19.11
2018-07-17T04:24:11.732Z,19.15
2018-07-17T04:25:11.728Z,19.18
2018-07-17T04:26:11.730Z,19.15
2018-07-17T04:27:11.725Z,19.12
2018-07-17T04:28:11.726Z,19.18
2018-07-17T04:29:11.728Z,19.21
2018-07-17T04:30:11.729Z,19.18
2018-07-17T04:31:11.722Z,19.18
2018-07-17T04:32:11.720Z,19.24
2018-07-17T04:33:11.717Z,19.22
2018-07-17T04:34:11.722Z,19.19
2018-07-17T04:35:11.712Z,19.24
2018-07-17T04:36:11.719Z,19.19
2018-07-17T04:37:11.729Z,19.21
2018-07-17T04:38:11.705Z,19.12
2018-07-17T04:39:11.706Z,19.21
2018-07-17T04:40:11.712Z,19.27
2018-07-17T04:41:11.703Z,19.30
2018-07-17T04:42:11.703Z,19.31
2018-07-17T04:43:11.703Z,19.30
2018-07-17T04:44:11.770Z,19.33
2018-07-17T04:45:11.702Z,19.30
2018-07-17T04:46:11.693Z,19.44
2018-07-17T04:47:11.690Z,19.41
2018-07-17T04:48:11.695Z,19.40
2018-07-17T04:49:11.721Z,19.51
2018-07-17T04:50:11.694Z,19.47
2018-07-17T04:51:11.690Z,19.51
2018-07-17T04:52:11.694Z,19.54
2018-07-17T04:53:11.688Z,19.54
2018-07-17T04:54:11.681Z,19.63
2018-07-17T04:55:11.682Z,19.74
2018-07-17T04:56:11.679Z,19.77
2018-07-17T04:57:11.685Z,19.79
2018-07-17T04:58:11.676Z,19.94
2018-07-17T04:59:11.677Z,19.92
2018-07-17T05:00:11.692Z,20.06
2018-07-17T05:01:11.678Z,20.13
2018-07-17T05:02:11.675Z,20.16
2018-07-17T05:03:11.689Z,20.36
2018-07-17T05:04:11.668Z,20.43
2018-07-17T05:05:11.704Z,20.52
2018-07-17T05:06:11.670Z,20.65
2018-07-17T05:07:11.659Z,20.70
2018-07-17T05:08:11.660Z,20.66
2018-07-17T05:09:11.661Z,20.70
2018-07-17T05:10:11.665Z,20.77
2018-07-17T05:11:11.658Z,20.78
2018-07-17T05:12:11.660Z,20.84
2018-07-17T05:13:11.654Z,20.96
2018-07-17T05:14:11.656Z,21.03
2018-07-17T05:15:11.654Z,21.07
2018-07-17T05:16:11.653Z,21.20
2018-07-17T05:17:11.648Z,21.18
2018-07-17T05:18:11.649Z,21.20
2018-07-17T05:19:11.649Z,21.27
2018-07-17T05:20:11.720Z,21.32
2018-07-17T05:21:11.647Z,21.24
2018-07-17T05:22:11.653Z,21.32
2018-07-17T05:23:11.646Z,21.35
2018-07-17T05:24:11.659Z,21.37
2018-07-17T05:25:11.651Z,21.50
2018-07-17T05:26:11.643Z,21.60
2018-07-17T05:27:11.653Z,21.67
2018-07-17T05:28:11.649Z,21.80
2018-07-17T05:29:11.656Z,21.83
2018-07-17T05:30:11.639Z,21.85
2018-07-17T05:31:11.640Z,21.96
2018-07-17T05:32:11.640Z,22.13
2018-07-17T05:33:11.641Z,22.11
2018-07-17T05:34:11.649Z,22.22
2018-07-17T05:35:11.738Z,22.20
2018-07-17T05:36:11.643Z,22.29
2018-07-17T05:37:11.641Z,22.39
2018-07-17T05:38:11.641Z,22.51
2018-07-17T05:39:11.682Z,22.60
2018-07-17T05:40:11.650Z,22.75
2018-07-17T05:41:11.654Z,22.85
2018-07-17T05:42:11.662Z,22.93
2018-07-17T05:43:11.665Z,23.05
2018-07-17T05:44:11.650Z,23.17
2018-07-17T05:45:11.676Z,23.21
2018-07-17T05:46:11.653Z,23.24
2018-07-17T05:47:11.655Z,23.44
2018-07-17T05:48:11.655Z,23.65
2018-07-17T05:49:11.656Z,23.74
2018-07-17T05:50:11.668Z,23.98
2018-07-17T05:51:11.668Z,24.18
2018-07-17T05:52:11.665Z,24.23
2018-07-17T05:53:11.664Z,24.33
2018-07-17T05:54:11.672Z,24.43
2018-07-17T05:55:11.669Z,24.47
2018-07-17T05:56:11.669Z,24.54
2018-07-17T05:57:11.670Z,24.61
2018-07-17T05:58:11.675Z,24.60
2018-07-17T05:59:11.676Z,24.69
2018-07-17T06:00:11.677Z,24.78
2018-07-17T06:01:11.688Z,24.77
2018-07-17T06:02:11.687Z,24.81
2018-07-17T06:03:11.690Z,24.99
2018-07-17T06:04:11.685Z,25.11
2018-07-17T06:05:11.702Z,25.17
2018-07-17T06:06:11.698Z,25.13
2018-07-17T06:07:11.698Z,25.26
2018-07-17T06:08:11.700Z,25.17
2018-07-17T06:09:11.706Z,25.26
2018-07-17T06:10:11.786Z,25.21
2018-07-17T06:11:11.708Z,25.22
2018-07-17T06:12:11.716Z,25.32
2018-07-17T06:13:11.718Z,25.36
2018-07-17T06:14:11.723Z,25.44
2018-07-17T06:15:11.733Z,25.44
2018-07-17T06:16:11.729Z,25.38
2018-07-17T06:17:11.737Z,25.35
2018-07-17T06:18:11.735Z,25.29
2018-07-17T06:19:11.737Z,25.32
2018-07-17T06:20:11.753Z,25.31
2018-07-17T06:21:11.746Z,25.32
2018-07-17T06:22:11.797Z,25.32
2018-07-17T06:23:11.754Z,25.23
2018-07-17T06:24:11.762Z,25.38
2018-07-17T06:25:11.823Z,25.33
2018-07-17T06:26:11.769Z,25.23
2018-07-17T06:27:11.771Z,25.32
2018-07-17T06:28:11.777Z,25.32
2018-07-17T06:29:11.782Z,25.32
2018-07-17T06:30:11.792Z,25.41
2018-07-17T06:31:11.807Z,25.44
2018-07-17T06:32:11.797Z,25.68
2018-07-17T06:33:12.336Z,25.78
2018-07-17T06:34:12.329Z,25.78
2018-07-17T06:35:12.852Z,25.81
2018-07-17T06:36:11.829Z,25.95
2018-07-17T06:37:11.848Z,25.96
2018-07-17T06:38:11.825Z,26.21
2018-07-17T06:39:11.843Z,26.23
2018-07-17T06:40:11.825Z,26.36
2018-07-17T06:41:11.827Z,26.45
2018-07-17T06:42:11.839Z,26.36
2018-07-17T06:43:11.846Z,26.31
2018-07-17T06:44:11.843Z,26.44
2018-07-17T06:45:11.846Z,26.40
2018-07-17T06:46:11.847Z,26.38
2018-07-17T06:47:11.856Z,26.55
2018-07-17T06:48:11.857Z,26.58
2018-07-17T06:49:11.869Z,26.70
2018-07-17T06:50:11.905Z,26.73
2018-07-17T06:51:11.878Z,26.84
2018-07-17T06:52:11.880Z,26.95
2018-07-17T06:53:11.885Z,27.15
2018-07-17T06:54:11.893Z,27.52
2018-07-17T06:55:11.896Z,27.68
2018-07-17T06:56:11.924Z,27.87
2018-07-17T06:57:11.912Z,28.05
2018-07-17T06:58:11.914Z,28.15
2018-07-17T06:59:11.917Z,28.23
2018-07-17T07:00:11.929Z,28.22
2018-07-17T07:01:11.934Z,28.30
2018-07-17T07:02:11.930Z,28.44
2018-07-17T07:03:11.944Z,28.69
2018-07-17T07:04:11.939Z,28.63
2018-07-17T07:05:12.014Z,28.69
2018-07-17T07:06:11.953Z,28.57
2018-07-17T07:07:11.964Z,28.49
2018-07-17T07:08:11.965Z,28.52
2018-07-17T07:09:11.970Z,28.54
2018-07-17T07:10:11.976Z,28.59
2018-07-17T07:11:12.036Z,28.66
2018-07-17T07:12:11.987Z,28.76
2018-07-17T07:13:11.999Z,28.72
2018-07-17T07:14:12.013Z,28.89
2018-07-17T07:15:12.005Z,28.91
2018-07-17T07:16:12.022Z,28.78
2018-07-17T07:17:12.036Z,28.75
2018-07-17T07:18:12.040Z,29.17
2018-07-17T07:19:12.035Z,29.47
2018-07-17T07:20:12.044Z,29.60
2018-07-17T07:21:12.044Z,29.71
2018-07-17T07:22:12.050Z,29.79
2018-07-17T07:23:12.081Z,29.97
2018-07-17T07:24:12.067Z,29.95
2018-07-17T07:25:12.078Z,30.15
2018-07-17T07:26:12.084Z,30.13
2018-07-17T07:27:12.091Z,30.06
2018-07-17T07:28:12.101Z,30.13
2018-07-17T07:29:12.101Z,30.10
2018-07-17T07:30:12.108Z,30.12
2018-07-17T07:31:12.115Z,30.06
2018-07-17T07:32:12.121Z,30.13
2018-07-17T07:33:12.130Z,30.21
2018-07-17T07:34:12.137Z,30.24
2018-07-17T07:35:12.145Z,30.34
2018-07-17T07:36:12.152Z,30.46
2018-07-17T07:37:12.225Z,30.46
2018-07-17T07:38:12.165Z,30.30
2018-07-17T07:39:12.171Z,30.18
2018-07-17T07:40:12.181Z,30.13
2018-07-17T07:41:12.195Z,30.08
2018-07-17T07:42:12.194Z,30.06
2018-07-17T07:43:12.204Z,30.06
2018-07-17T07:44:12.223Z,30.09
2018-07-17T07:45:12.217Z,30.05
2018-07-17T07:46:12.228Z,29.93
2018-07-17T07:47:12.230Z,29.95
2018-07-17T07:48:12.240Z,29.91
2018-07-17T07:49:12.272Z,29.78
2018-07-17T07:50:12.252Z,29.66
2018-07-17T07:51:12.268Z,29.54
2018-07-17T07:52:12.267Z,29.53
2018-07-17T07:53:12.280Z,29.68
2018-07-17T07:54:12.314Z,29.71
2018-07-17T07:55:12.293Z,29.75
2018-07-17T07:56:12.301Z,29.98
2018-07-17T07:57:12.303Z,30.24
2018-07-17T07:58:12.335Z,30.35
2018-07-17T07:59:12.320Z,30.27
2018-07-17T08:00:12.326Z,30.55
2018-07-17T08:01:12.337Z,30.69
2018-07-17T08:02:12.350Z,30.84
2018-07-17T08:03:12.355Z,31.05
2018-07-17T08:04:12.359Z,31.27
2018-07-17T08:05:12.371Z,31.55
2018-07-17T08:06:12.378Z,31.74
2018-07-17T08:07:12.417Z,31.59
2018-07-17T08:08:12.393Z,31.59
2018-07-17T08:09:12.397Z,31.84
2018-07-17T08:10:12.416Z,32.04
2018-07-17T08:11:12.418Z,32.36
2018-07-17T08:12:12.441Z,32.33
2018-07-17T08:13:12.434Z,32.36
2018-07-17T08:14:12.439Z,32.31
2018-07-17T08:15:12.449Z,32.36
2018-07-17T08:16:12.463Z,32.30
2018-07-17T08:17:12.470Z,32.49
2018-07-17T08:18:12.476Z,32.67
2018-07-17T08:19:12.481Z,32.77
2018-07-17T08:20:12.493Z,32.74
2018-07-17T08:21:12.504Z,32.52
2018-07-17T08:22:12.512Z,32.04
2018-07-17T08:23:12.525Z,32.07
2018-07-17T08:24:12.546Z,31.94
2018-07-17T08:25:12.540Z,32.14
2018-07-17T08:26:12.550Z,32.19
2018-07-17T08:27:12.557Z,32.22
2018-07-17T08:28:12.567Z,32.34
2018-07-17T08:29:12.581Z,32.73
2018-07-17T08:30:12.583Z,33.02
2018-07-17T08:31:12.597Z,33.12
2018-07-17T08:32:12.602Z,32.78
2018-07-17T08:33:13.405Z,32.78
2018-07-17T08:34:12.620Z,32.53
2018-07-17T08:35:12.634Z,32.51
2018-07-17T08:36:12.648Z,32.63
2018-07-17T08:37:12.657Z,32.60
2018-07-17T08:38:12.662Z,32.60
2018-07-17T08:39:12.674Z,32.97
2018-07-17T08:40:12.688Z,33.01
2018-07-17T08:41:12.695Z,32.89
2018-07-17T08:42:12.712Z,32.87
2018-07-17T08:43:12.747Z,32.71
2018-07-17T08:44:12.754Z,32.78
2018-07-17T08:45:12.732Z,33.05
2018-07-17T08:46:12.757Z,32.95
2018-07-17T08:47:12.760Z,33.01
2018-07-17T08:48:12.771Z,33.07
2018-07-17T08:49:12.818Z,33.27
2018-07-17T08:50:12.796Z,33.32
2018-07-17T08:51:12.789Z,33.52
2018-07-17T08:52:12.828Z,33.64
2018-07-17T08:53:12.819Z,33.95
2018-07-17T08:54:12.824Z,34.21
2018-07-17T08:55:12.826Z,34.20
2018-07-17T08:56:12.836Z,34.36
2018-07-17T08:57:12.846Z,34.27
2018-07-17T08:58:12.857Z,34.17
2018-07-17T08:59:12.867Z,34.23
2018-07-17T09:00:12.880Z,34.10
2018-07-17T09:01:12.888Z,34.21
2018-07-17T09:02:12.909Z,34.38
2018-07-17T09:03:12.929Z,34.23
2018-07-17T09:04:12.917Z,34.27
2018-07-17T09:05:12.931Z,34.32
2018-07-17T09:06:12.945Z,34.45
2018-07-17T09:07:12.954Z,34.47
2018-07-17T09:08:12.966Z,34.66
2018-07-17T09:09:12.976Z,34.57
2018-07-17T09:10:12.988Z,34.45
2018-07-17T09:11:13.000Z,34.58
2018-07-17T09:12:13.013Z,34.83
2018-07-17T09:13:13.113Z,34.55
2018-07-17T09:14:13.028Z,34.35
2018-07-17T09:15:13.044Z,34.52
2018-07-17T09:16:13.054Z,34.71
2018-07-17T09:17:13.067Z,34.83
2018-07-17T09:18:13.074Z,35.15
2018-07-17T09:19:13.087Z,35.53
2018-07-17T09:20:13.100Z,35.48
2018-07-17T09:21:13.109Z,35.58
2018-07-17T09:22:13.117Z,35.80
2018-07-17T09:23:13.135Z,35.80
2018-07-17T09:24:13.142Z,35.71
2018-07-17T09:25:13.153Z,35.80
2018-07-17T09:26:13.167Z,35.89
2018-07-17T09:27:13.177Z,35.92
2018-07-17T09:28:13.233Z,36.05
2018-07-17T09:29:13.199Z,36.21
2018-07-17T09:30:13.212Z,36.02
2018-07-17T09:31:13.221Z,36.08
2018-07-17T09:32:13.237Z,35.93
2018-07-17T09:33:13.254Z,36.27
2018-07-17T09:34:13.257Z,36.27
2018-07-17T09:35:13.271Z,36.52
2018-07-17T09:36:13.284Z,36.80
2018-07-17T09:37:13.298Z,36.88
2018-07-17T09:38:13.307Z,36.99
2018-07-17T09:39:13.322Z,37.10
2018-07-17T09:40:13.331Z,36.89
2018-07-17T09:41:13.348Z,36.88
2018-07-17T09:42:13.358Z,37.18
2018-07-17T09:43:13.392Z,37.25
2018-07-17T09:44:13.402Z,37.30
2018-07-17T09:45:13.391Z,37.35
2018-07-17T09:46:13.404Z,37.40
2018-07-17T09:47:13.425Z,37.47
2018-07-17T09:48:13.423Z,37.33
2018-07-17T09:49:13.436Z,37.37
2018-07-17T09:50:13.451Z,37.25
2018-07-17T09:51:13.465Z,37.20
2018-07-17T09:52:13.472Z,37.26
2018-07-17T09:53:13.489Z,37.08
2018-07-17T09:54:13.542Z,37.10
2018-07-17T09:55:13.513Z,37.21
2018-07-17T09:56:13.525Z,36.68
2018-07-17T09:57:13.548Z,36.67
2018-07-17T09:58:13.548Z,36.80
2018-07-17T09:59:13.571Z,36.79
2018-07-17T10:00:13.600Z,36.79
2018-07-17T10:01:13.588Z,36.83
2018-07-17T10:02:13.603Z,36.76
2018-07-17T10:03:13.635Z,36.84
2018-07-17T10:04:13.632Z,37.07
2018-07-17T10:05:13.651Z,37.40
2018-07-17T10:06:13.683Z,37.53
2018-07-17T10:07:13.678Z,37.78
2018-07-17T10:08:13.676Z,37.92
2018-07-17T10:09:13.685Z,37.92
2018-07-17T10:10:13.717Z,37.48
2018-07-17T10:11:13.716Z,37.45
2018-07-17T10:12:13.735Z,37.45
2018-07-17T10:13:13.741Z,37.65
2018-07-17T10:14:13.753Z,38.02
2018-07-17T10:15:13.771Z,37.99
2018-07-17T10:16:13.786Z,37.77
2018-07-17T10:17:13.796Z,37.74
2018-07-17T10:18:13.820Z,37.77
2018-07-17T10:19:13.825Z,37.64
2018-07-17T10:20:13.881Z,37.71
2018-07-17T10:21:13.864Z,37.48
2018-07-17T10:22:13.887Z,37.37
2018-07-17T10:23:13.901Z,37.42
2018-07-17T10:24:13.901Z,37.48
2018-07-17T10:25:13.898Z,37.74
2018-07-17T10:26:13.947Z,37.75
2018-07-17T10:27:13.928Z,37.90
2018-07-17T10:28:13.936Z,37.75
2018-07-17T10:29:13.961Z,37.44
2018-07-17T10:30:13.970Z,37.45
2018-07-17T10:31:13.984Z,37.71
2018-07-17T10:32:14.114Z,37.83
2018-07-17T10:33:14.014Z,37.82
2018-07-17T10:34:14.023Z,37.47
2018-07-17T10:35:14.034Z,37.25
2018-07-17T10:36:14.049Z,37.26
2018-07-17T10:37:14.081Z,37.37
2018-07-17T10:38:14.108Z,37.67
2018-07-17T10:39:14.113Z,37.80
2018-07-17T10:40:14.111Z,37.67
2018-07-17T10:41:14.115Z,37.86
2018-07-17T10:42:14.129Z,37.94
2018-07-17T10:43:14.141Z,38.11
2018-07-17T10:44:14.173Z,38.02
2018-07-17T10:45:14.173Z,38.19
2018-07-17T10:46:14.188Z,38.24
2018-07-17T10:47:14.193Z,38.06
2018-07-17T10:48:14.204Z,38.09
2018-07-17T10:49:14.239Z,38.12
2018-07-17T10:50:14.232Z,38.08
2018-07-17T10:51:14.246Z,38.19
2018-07-17T10:52:14.283Z,38.33
2018-07-17T10:53:14.273Z,38.46
2018-07-17T10:54:14.303Z,38.60
2018-07-17T10:55:14.293Z,38.73
2018-07-17T10:56:14.312Z,38.83
2018-07-17T10:57:14.320Z,38.99
2018-07-17T10:58:14.334Z,38.97
2018-07-17T10:59:14.354Z,38.97
2018-07-17T11:00:14.365Z,39.02
2018-07-17T11:01:14.409Z,39.02
2018-07-17T11:02:14.391Z,39.04
2018-07-17T11:03:14.410Z,38.86
2018-07-17T11:04:14.422Z,38.80
2018-07-17T11:05:14.439Z,38.60
2018-07-17T11:06:14.440Z,38.61
2018-07-17T11:07:14.459Z,38.71
2018-07-17T11:08:14.508Z,38.67
2018-07-17T11:09:14.481Z,38.67
2018-07-17T11:10:14.495Z,38.58
2018-07-17T11:11:14.507Z,38.55
2018-07-17T11:12:14.532Z,38.64
2018-07-17T11:13:14.544Z,38.69
2018-07-17T11:14:14.559Z,38.95
2018-07-17T11:15:14.565Z,39.00
2018-07-17T11:16:14.576Z,39.12
2018-07-17T11:17:14.597Z,39.07
2018-07-17T11:18:14.600Z,38.96
2018-07-17T11:19:14.618Z,38.61
2018-07-17T11:20:14.633Z,38.57
2018-07-17T11:21:14.644Z,38.52
2018-07-17T11:22:14.653Z,38.50
2018-07-17T11:23:14.670Z,38.77
2018-07-17T11:24:14.688Z,38.52
2018-07-17T11:25:14.695Z,38.45
2018-07-17T11:26:14.707Z,38.49
2018-07-17T11:27:14.720Z,38.38
2018-07-17T11:28:14.739Z,38.19
2018-07-17T11:29:14.767Z,37.64
2018-07-17T11:30:14.767Z,37.49
2018-07-17T11:31:14.795Z,37.29
2018-07-17T11:32:14.792Z,37.29
2018-07-17T11:33:14.827Z,37.55
2018-07-17T11:34:14.819Z,37.87
2018-07-17T11:35:14.828Z,38.06
2018-07-17T11:36:14.843Z,38.12
2018-07-17T11:37:14.864Z,38.12
2018-07-17T11:38:14.870Z,38.08
2018-07-17T11:39:14.883Z,38.08
2018-07-17T11:40:14.902Z,38.23
2018-07-17T11:41:14.911Z,38.46
2018-07-17T11:42:14.933Z,38.45
2018-07-17T11:43:14.950Z,38.52
2018-07-17T11:44:14.953Z,38.39
2018-07-17T11:45:14.970Z,38.23
2018-07-17T11:46:14.977Z,38.01
2018-07-17T11:47:14.989Z,37.77
2018-07-17T11:48:15.006Z,37.58
2018-07-17T11:49:15.019Z,37.59
2018-07-17T11:50:15.028Z,37.51
2018-07-17T11:51:15.042Z,37.23
2018-07-17T11:52:15.052Z,37.15
2018-07-17T11:53:15.163Z,37.02
2018-07-17T11:54:15.082Z,36.84
2018-07-17T11:55:15.088Z,36.96
2018-07-17T11:56:15.107Z,37.23
2018-07-17T11:57:15.134Z,37.33
2018-07-17T11:58:15.128Z,37.51
2018-07-17T11:59:15.171Z,37.68
2018-07-17T12:00:15.151Z,37.86
2018-07-17T12:01:15.178Z,37.90
2018-07-17T12:02:15.176Z,37.89
2018-07-17T12:03:15.202Z,37.86
2018-07-17T12:04:15.199Z,37.90
2018-07-17T12:05:15.210Z,38.02
2018-07-17T12:06:15.219Z,37.87
2018-07-17T12:07:15.243Z,37.71
2018-07-17T12:08:15.250Z,37.51
2018-07-17T12:09:15.256Z,37.40
2018-07-17T12:10:15.281Z,37.51
2018-07-17T12:11:15.286Z,37.35
2018-07-17T12:12:15.323Z,37.29
2018-07-17T12:13:15.311Z,37.23
2018-07-17T12:14:15.324Z,37.15
2018-07-17T12:15:15.328Z,37.32
2018-07-17T12:16:15.364Z,37.47
2018-07-17T12:17:15.365Z,37.33
2018-07-17T12:18:15.367Z,37.01
2018-07-17T12:19:15.381Z,36.83
2018-07-17T12:20:15.486Z,36.79
2018-07-17T12:21:15.407Z,36.54
2018-07-17T12:22:15.430Z,36.40
2018-07-17T12:23:15.447Z,36.28
2018-07-17T12:24:15.445Z,36.18
2018-07-17T12:25:15.457Z,36.01
2018-07-17T12:26:15.464Z,35.97
2018-07-17T12:27:15.513Z,36.04
2018-07-17T12:28:15.514Z,36.07
2018-07-17T12:29:15.509Z,35.79
2018-07-17T12:30:15.557Z,35.79
2018-07-17T12:31:15.521Z,35.90
2018-07-17T12:32:15.534Z,35.88
2018-07-17T12:33:15.555Z,35.97
2018-07-17T12:34:15.568Z,36.25
2018-07-17T12:35:15.565Z,36.52
2018-07-17T12:36:15.593Z,36.72
2018-07-17T12:37:15.604Z,36.79
2018-07-17T12:38:15.595Z,36.59
2018-07-17T12:39:15.611Z,36.51
2018-07-17T12:40:15.660Z,36.67
2018-07-17T12:41:15.633Z,36.59
2018-07-17T12:42:15.729Z,35.95
2018-07-17T12:43:15.689Z,35.89
2018-07-17T12:44:15.682Z,35.74
2018-07-17T12:45:15.666Z,35.95
2018-07-17T12:46:15.743Z,36.05
2018-07-17T12:47:15.691Z,36.08
2018-07-17T12:48:15.699Z,36.00
2018-07-17T12:49:15.705Z,35.78
2018-07-17T12:50:15.757Z,35.48
2018-07-17T12:51:15.732Z,35.45
2018-07-17T12:52:15.738Z,35.39